sensor_id;sensor_type;location;lat;lon;timestamp;pressure;altitude;pressure_sealevel;temperature;humidity
59168;BME280;70412;55.048;73.268;2023-07-09T00:01:51;100017.50;;;16.39;72.90
59168;BME280;70412;55.048;73.268;2023-07-09T00:04:53;100020.91;;;16.50;72.51
59168;BME280;70412;55.048;73.268;2023-07-09T00:07:56;100024.56;;;16.49;73.12
59168;BME280;70412;55.048;73.268;2023-07-09T00:11:00;100024.91;;;16.54;73.39
59168;BME280;70412;55.048;73.268;2023-07-09T00:14:04;100031.38;;;16.69;73.14
59168;BME280;70412;55.048;73.268;2023-07-09T00:17:33;100025.97;;;16.61;72.00
59168;BME280;70412;55.048;73.268;2023-07-09T00:20:35;100024.84;;;16.45;72.85
59168;BME280;70412;55.048;73.268;2023-07-09T00:23:38;100025.22;;;16.51;73.05
59168;BME280;70412;55.048;73.268;2023-07-09T00:26:42;100025.59;;;16.20;73.46
59168;BME280;70412;55.048;73.268;2023-07-09T00:29:44;100030.72;;;16.57;72.76
59168;BME280;70412;55.048;73.268;2023-07-09T00:32:50;100029.16;;;16.64;71.79
59168;BME280;70412;55.048;73.268;2023-07-09T00:35:54;100031.94;;;16.63;72.92
59168;BME280;70412;55.048;73.268;2023-07-09T00:38:57;100031.28;;;17.04;71.67
59168;BME280;70412;55.048;73.268;2023-07-09T00:42:15;100033.53;;;16.73;71.77
59168;BME280;70412;55.048;73.268;2023-07-09T00:45:25;100035.84;;;17.20;70.59
59168;BME280;70412;55.048;73.268;2023-07-09T00:48:27;100035.38;;;17.59;68.66
59168;BME280;70412;55.048;73.268;2023-07-09T00:51:33;100038.13;;;17.75;69.27
59168;BME280;70412;55.048;73.268;2023-07-09T00:54:41;100041.94;;;17.81;68.62
59168;BME280;70412;55.048;73.268;2023-07-09T00:57:53;100030.22;;;17.91;68.97
59168;BME280;70412;55.048;73.268;2023-07-09T01:01:03;100021.53;;;18.40;65.95
59168;BME280;70412;55.048;73.268;2023-07-09T01:04:08;100035.63;;;17.74;66.43
59168;BME280;70412;55.048;73.268;2023-07-09T01:07:12;100043.09;;;17.44;66.39
59168;BME280;70412;55.048;73.268;2023-07-09T01:10:16;100042.31;;;17.86;68.91
59168;BME280;70412;55.048;73.268;2023-07-09T01:13:20;100044.66;;;17.97;67.42
59168;BME280;70412;55.048;73.268;2023-07-09T01:16:26;100050.72;;;18.32;64.48
59168;BME280;70412;55.048;73.268;2023-07-09T01:19:35;100050.00;;;18.05;63.85
59168;BME280;70412;55.048;73.268;2023-07-09T01:22:44;100048.19;;;18.06;66.07
59168;BME280;70412;55.048;73.268;2023-07-09T01:25:51;100063.06;;;18.57;62.66
59168;BME280;70412;55.048;73.268;2023-07-09T01:28:56;100060.25;;;18.75;62.93
59168;BME280;70412;55.048;73.268;2023-07-09T01:31:59;100057.69;;;19.14;60.63
59168;BME280;70412;55.048;73.268;2023-07-09T01:35:03;100051.59;;;18.57;61.18
59168;BME280;70412;55.048;73.268;2023-07-09T01:38:09;100058.03;;;19.11;61.28
59168;BME280;70412;55.048;73.268;2023-07-09T01:41:12;100067.69;;;19.04;64.70
59168;BME280;70412;55.048;73.268;2023-07-09T01:44:15;100070.03;;;18.74;61.40
59168;BME280;70412;55.048;73.268;2023-07-09T01:47:18;100070.69;;;19.17;59.67
59168;BME280;70412;55.048;73.268;2023-07-09T01:50:20;100065.69;;;18.98;59.36
59168;BME280;70412;55.048;73.268;2023-07-09T01:53:25;100062.31;;;19.28;60.61
59168;BME280;70412;55.048;73.268;2023-07-09T01:56:28;100082.13;;;19.34;58.87
59168;BME280;70412;55.048;73.268;2023-07-09T01:59:31;100073.38;;;19.64;57.74
59168;BME280;70412;55.048;73.268;2023-07-09T02:02:34;100066.69;;;19.21;58.44
59168;BME280;70412;55.048;73.268;2023-07-09T02:05:38;100075.00;;;18.94;57.69
59168;BME280;70412;55.048;73.268;2023-07-09T02:08:40;100070.94;;;19.55;56.03
59168;BME280;70412;55.048;73.268;2023-07-09T02:11:42;100063.44;;;19.97;56.83
59168;BME280;70412;55.048;73.268;2023-07-09T02:14:48;100063.50;;;20.20;58.06
59168;BME280;70412;55.048;73.268;2023-07-09T02:17:51;100066.19;;;20.43;58.44
59168;BME280;70412;55.048;73.268;2023-07-09T02:20:54;100067.91;;;20.36;54.09
59168;BME280;70412;55.048;73.268;2023-07-09T02:23:57;100068.75;;;19.97;54.97
59168;BME280;70412;55.048;73.268;2023-07-09T02:27:04;100064.81;;;20.16;53.48
59168;BME280;70412;55.048;73.268;2023-07-09T02:30:07;100063.38;;;20.82;54.24
59168;BME280;70412;55.048;73.268;2023-07-09T02:33:11;100060.03;;;21.03;53.68
59168;BME280;70412;55.048;73.268;2023-07-09T02:36:13;100070.00;;;20.18;54.91
59168;BME280;70412;55.048;73.268;2023-07-09T02:39:16;100072.38;;;20.81;53.64
59168;BME280;70412;55.048;73.268;2023-07-09T02:42:22;100077.09;;;20.56;53.41
59168;BME280;70412;55.048;73.268;2023-07-09T02:45:25;100083.06;;;20.36;53.42
59168;BME280;70412;55.048;73.268;2023-07-09T02:48:27;100087.38;;;20.37;53.24
59168;BME280;70412;55.048;73.268;2023-07-09T02:51:30;100076.88;;;20.81;51.00
59168;BME280;70412;55.048;73.268;2023-07-09T02:54:34;100063.34;;;19.11;53.38
59168;BME280;70412;55.048;73.268;2023-07-09T02:57:36;100059.19;;;21.55;50.41
59168;BME280;70412;55.048;73.268;2023-07-09T03:00:39;100077.34;;;20.70;51.67
59168;BME280;70412;55.048;73.268;2023-07-09T03:03:41;100069.19;;;20.63;51.84
59168;BME280;70412;55.048;73.268;2023-07-09T03:06:44;100073.81;;;20.92;52.01
59168;BME280;70412;55.048;73.268;2023-07-09T03:09:47;100068.28;;;20.93;51.68
59168;BME280;70412;55.048;73.268;2023-07-09T03:12:50;100064.84;;;21.81;50.56
59168;BME280;70412;55.048;73.268;2023-07-09T03:15:57;100063.63;;;20.27;50.80
59168;BME280;70412;55.048;73.268;2023-07-09T03:19:00;100062.91;;;19.71;51.28
59168;BME280;70412;55.048;73.268;2023-07-09T03:22:03;100055.88;;;21.24;50.22
59168;BME280;70412;55.048;73.268;2023-07-09T03:25:05;100057.31;;;21.11;47.93
59168;BME280;70412;55.048;73.268;2023-07-09T03:28:08;100055.13;;;21.44;47.61
59168;BME280;70412;55.048;73.268;2023-07-09T03:31:11;100064.66;;;21.09;48.56
59168;BME280;70412;55.048;73.268;2023-07-09T03:34:14;100066.09;;;20.97;47.31
59168;BME280;70412;55.048;73.268;2023-07-09T03:37:17;100058.31;;;20.73;49.59
59168;BME280;70412;55.048;73.268;2023-07-09T03:40:23;100056.94;;;21.14;48.96
59168;BME280;70412;55.048;73.268;2023-07-09T03:43:26;100049.59;;;21.46;48.78
59168;BME280;70412;55.048;73.268;2023-07-09T03:46:28;100058.81;;;22.24;49.91
59168;BME280;70412;55.048;73.268;2023-07-09T03:49:32;100064.66;;;20.72;48.78
59168;BME280;70412;55.048;73.268;2023-07-09T03:52:35;100046.75;;;21.92;47.51
59168;BME280;70412;55.048;73.268;2023-07-09T03:55:37;100040.31;;;22.22;46.34
59168;BME280;70412;55.048;73.268;2023-07-09T03:58:40;100064.19;;;22.66;44.98
59168;BME280;70412;55.048;73.268;2023-07-09T04:01:43;100056.13;;;22.02;46.24
59168;BME280;70412;55.048;73.268;2023-07-09T04:04:48;100066.81;;;22.60;45.73
59168;BME280;70412;55.048;73.268;2023-07-09T04:07:51;100057.41;;;22.49;45.46
59168;BME280;70412;55.048;73.268;2023-07-09T04:10:54;100044.19;;;22.41;45.84
59168;BME280;70412;55.048;73.268;2023-07-09T04:13:58;100049.50;;;21.10;50.54
59168;BME280;70412;55.048;73.268;2023-07-09T04:17:01;100049.59;;;21.46;45.32
59168;BME280;70412;55.048;73.268;2023-07-09T04:20:03;100057.38;;;22.64;45.51
59168;BME280;70412;55.048;73.268;2023-07-09T04:23:09;100060.75;;;22.15;47.14
59168;BME280;70412;55.048;73.268;2023-07-09T04:26:13;100057.16;;;21.87;46.09
59168;BME280;70412;55.048;73.268;2023-07-09T04:29:16;100060.72;;;21.94;46.95
59168;BME280;70412;55.048;73.268;2023-07-09T04:32:18;100054.06;;;22.19;45.81
59168;BME280;70412;55.048;73.268;2023-07-09T04:35:21;100060.38;;;21.23;47.04
59168;BME280;70412;55.048;73.268;2023-07-09T04:38:23;100054.88;;;21.54;47.69
59168;BME280;70412;55.048;73.268;2023-07-09T04:41:26;100037.91;;;21.32;45.19
59168;BME280;70412;55.048;73.268;2023-07-09T04:44:29;100066.63;;;22.61;44.68
59168;BME280;70412;55.048;73.268;2023-07-09T04:47:31;100051.28;;;22.13;45.80
59168;BME280;70412;55.048;73.268;2023-07-09T04:50:33;100051.66;;;22.67;45.05
59168;BME280;70412;55.048;73.268;2023-07-09T04:53:36;100056.84;;;22.32;44.29
59168;BME280;70412;55.048;73.268;2023-07-09T04:56:39;100044.03;;;23.89;42.54
59168;BME280;70412;55.048;73.268;2023-07-09T04:59:41;100051.19;;;24.43;42.65
59168;BME280;70412;55.048;73.268;2023-07-09T05:02:44;100051.91;;;22.72;42.91
59168;BME280;70412;55.048;73.268;2023-07-09T05:05:52;100063.22;;;21.95;43.40
59168;BME280;70412;55.048;73.268;2023-07-09T05:08:54;100061.03;;;21.69;44.17
59168;BME280;70412;55.048;73.268;2023-07-09T05:11:57;100070.56;;;22.08;42.44
59168;BME280;70412;55.048;73.268;2023-07-09T05:14:59;100051.00;;;22.44;42.80
59168;BME280;70412;55.048;73.268;2023-07-09T05:18:02;100051.78;;;23.71;39.77
59168;BME280;70412;55.048;73.268;2023-07-09T05:21:04;100060.75;;;23.00;41.63
59168;BME280;70412;55.048;73.268;2023-07-09T05:24:07;100039.16;;;23.58;41.67
59168;BME280;70412;55.048;73.268;2023-07-09T05:27:09;100042.75;;;23.09;41.15
59168;BME280;70412;55.048;73.268;2023-07-09T05:30:12;100044.78;;;22.58;43.24
59168;BME280;70412;55.048;73.268;2023-07-09T05:33:15;100031.22;;;22.38;43.71
59168;BME280;70412;55.048;73.268;2023-07-09T05:36:17;100039.13;;;22.95;40.14
59168;BME280;70412;55.048;73.268;2023-07-09T05:39:28;100045.63;;;23.08;40.19
59168;BME280;70412;55.048;73.268;2023-07-09T05:42:31;100035.78;;;23.90;40.25
59168;BME280;70412;55.048;73.268;2023-07-09T05:45:34;100022.13;;;23.79;39.31
59168;BME280;70412;55.048;73.268;2023-07-09T05:48:37;100035.50;;;23.31;40.30
59168;BME280;70412;55.048;73.268;2023-07-09T05:51:39;100027.31;;;23.39;40.88
59168;BME280;70412;55.048;73.268;2023-07-09T05:54:42;100012.38;;;23.23;41.63
59168;BME280;70412;55.048;73.268;2023-07-09T05:57:46;100011.38;;;23.66;40.38
59168;BME280;70412;55.048;73.268;2023-07-09T06:00:53;100000.66;;;23.66;40.19
59168;BME280;70412;55.048;73.268;2023-07-09T06:03:56;100001.09;;;23.69;40.50
59168;BME280;70412;55.048;73.268;2023-07-09T06:06:58;100008.19;;;23.90;40.09
59168;BME280;70412;55.048;73.268;2023-07-09T06:10:01;100007.66;;;24.28;39.51
59168;BME280;70412;55.048;73.268;2023-07-09T06:13:03;100002.91;;;24.16;40.56
59168;BME280;70412;55.048;73.268;2023-07-09T06:16:06;100012.31;;;23.17;40.03
59168;BME280;70412;55.048;73.268;2023-07-09T06:19:08;100004.28;;;23.51;39.90
59168;BME280;70412;55.048;73.268;2023-07-09T06:22:11;100007.03;;;24.19;41.25
59168;BME280;70412;55.048;73.268;2023-07-09T06:25:13;100009.53;;;25.00;42.09
59168;BME280;70412;55.048;73.268;2023-07-09T06:28:17;100014.47;;;24.24;39.75
59168;BME280;70412;55.048;73.268;2023-07-09T06:31:20;99994.28;;;24.67;40.69
59168;BME280;70412;55.048;73.268;2023-07-09T06:34:23;99997.13;;;24.06;41.62
59168;BME280;70412;55.048;73.268;2023-07-09T06:37:25;100004.22;;;23.04;41.76
59168;BME280;70412;55.048;73.268;2023-07-09T06:40:29;100000.66;;;22.96;42.47
59168;BME280;70412;55.048;73.268;2023-07-09T06:43:34;99997.28;;;22.81;42.56
59168;BME280;70412;55.048;73.268;2023-07-09T06:46:39;99992.28;;;23.34;41.75
59168;BME280;70412;55.048;73.268;2023-07-09T06:49:42;99974.19;;;23.90;41.51
59168;BME280;70412;55.048;73.268;2023-07-09T06:52:44;99996.75;;;25.08;37.33
59168;BME280;70412;55.048;73.268;2023-07-09T06:55:47;100000.06;;;24.64;39.14
59168;BME280;70412;55.048;73.268;2023-07-09T06:58:51;100001.91;;;24.57;40.08
59168;BME280;70412;55.048;73.268;2023-07-09T07:01:53;99991.59;;;25.07;40.38
59168;BME280;70412;55.048;73.268;2023-07-09T07:04:56;99981.16;;;23.78;41.56
59168;BME280;70412;55.048;73.268;2023-07-09T07:07:59;99977.41;;;26.03;40.23
59168;BME280;70412;55.048;73.268;2023-07-09T07:11:03;99981.69;;;24.35;39.59
59168;BME280;70412;55.048;73.268;2023-07-09T07:14:07;99964.16;;;24.06;39.92
59168;BME280;70412;55.048;73.268;2023-07-09T07:17:24;99969.91;;;24.09;38.83
59168;BME280;70412;55.048;73.268;2023-07-09T07:20:46;99973.22;;;24.31;40.67
59168;BME280;70412;55.048;73.268;2023-07-09T07:24:27;99974.19;;;23.97;39.48
59168;BME280;70412;55.048;73.268;2023-07-09T07:27:30;99955.91;;;24.07;39.99
59168;BME280;70412;55.048;73.268;2023-07-09T07:30:32;99958.38;;;24.15;41.34
59168;BME280;70412;55.048;73.268;2023-07-09T07:33:35;99960.16;;;23.95;40.25
59168;BME280;70412;55.048;73.268;2023-07-09T07:36:38;99951.81;;;24.25;41.43
59168;BME280;70412;55.048;73.268;2023-07-09T07:39:42;99970.81;;;23.27;41.61
59168;BME280;70412;55.048;73.268;2023-07-09T07:42:44;99960.94;;;23.76;41.05
59168;BME280;70412;55.048;73.268;2023-07-09T07:45:48;99972.97;;;22.76;42.32
59168;BME280;70412;55.048;73.268;2023-07-09T07:48:51;99969.81;;;23.70;41.66
59168;BME280;70412;55.048;73.268;2023-07-09T07:51:53;99960.84;;;23.15;42.49
59168;BME280;70412;55.048;73.268;2023-07-09T07:54:56;99975.06;;;24.04;40.70
59168;BME280;70412;55.048;73.268;2023-07-09T07:57:58;99976.50;;;24.13;42.01
59168;BME280;70412;55.048;73.268;2023-07-09T08:01:02;99965.41;;;24.30;42.62
59168;BME280;70412;55.048;73.268;2023-07-09T08:04:05;99972.84;;;23.67;41.05
59168;BME280;70412;55.048;73.268;2023-07-09T08:07:09;99976.47;;;23.05;40.22
59168;BME280;70412;55.048;73.268;2023-07-09T08:10:12;99977.50;;;23.38;39.77
59168;BME280;70412;55.048;73.268;2023-07-09T08:13:15;99966.09;;;23.84;39.25
59168;BME280;70412;55.048;73.268;2023-07-09T08:16:17;99980.44;;;24.04;41.32
59168;BME280;70412;55.048;73.268;2023-07-09T08:19:20;99991.22;;;23.70;39.18
59168;BME280;70412;55.048;73.268;2023-07-09T08:22:22;99983.00;;;23.78;40.67
59168;BME280;70412;55.048;73.268;2023-07-09T08:25:25;99979.19;;;24.13;41.50
59168;BME280;70412;55.048;73.268;2023-07-09T08:28:27;99982.00;;;23.99;39.67
59168;BME280;70412;55.048;73.268;2023-07-09T08:31:30;99968.97;;;23.69;40.22
59168;BME280;70412;55.048;73.268;2023-07-09T08:34:32;99956.72;;;24.08;39.46
59168;BME280;70412;55.048;73.268;2023-07-09T08:37:39;99968.28;;;24.35;38.73
59168;BME280;70412;55.048;73.268;2023-07-09T08:40:56;99974.97;;;23.78;40.34
59168;BME280;70412;55.048;73.268;2023-07-09T08:50:38;99957.41;;;23.69;40.73
59168;BME280;70412;55.048;73.268;2023-07-09T08:53:53;99962.44;;;23.92;40.68
59168;BME280;70412;55.048;73.268;2023-07-09T08:57:02;99958.72;;;23.93;41.71
59168;BME280;70412;55.048;73.268;2023-07-09T09:00:18;99958.97;;;25.68;42.03
59168;BME280;70412;55.048;73.268;2023-07-09T09:03:39;99959.53;;;25.38;39.91
59168;BME280;70412;55.048;73.268;2023-07-09T09:06:46;99947.72;;;23.54;41.82
59168;BME280;70412;55.048;73.268;2023-07-09T09:09:57;99924.53;;;23.88;42.09
59168;BME280;70412;55.048;73.268;2023-07-09T09:13:37;99946.84;;;24.48;40.44
59168;BME280;70412;55.048;73.268;2023-07-09T09:16:36;99948.66;;;25.07;39.25
59168;BME280;70412;55.048;73.268;2023-07-09T09:19:56;99939.63;;;24.68;40.66
59168;BME280;70412;55.048;73.268;2023-07-09T09:23:11;99930.34;;;24.64;41.86
59168;BME280;70412;55.048;73.268;2023-07-09T09:26:23;99918.19;;;24.55;39.40
59168;BME280;70412;55.048;73.268;2023-07-09T09:29:26;99936.19;;;25.77;39.69
59168;BME280;70412;55.048;73.268;2023-07-09T09:32:34;99936.84;;;25.15;38.87
59168;BME280;70412;55.048;73.268;2023-07-09T09:35:40;99923.47;;;23.76;40.06
59168;BME280;70412;55.048;73.268;2023-07-09T09:38:43;99933.97;;;23.84;41.77
59168;BME280;70412;55.048;73.268;2023-07-09T09:41:47;99938.41;;;24.71;41.39
59168;BME280;70412;55.048;73.268;2023-07-09T09:44:49;99921.09;;;25.45;40.03
59168;BME280;70412;55.048;73.268;2023-07-09T09:47:52;99885.66;;;25.16;38.73
59168;BME280;70412;55.048;73.268;2023-07-09T09:50:55;99937.78;;;24.09;41.60
59168;BME280;70412;55.048;73.268;2023-07-09T09:54:02;99935.69;;;24.51;41.13
59168;BME280;70412;55.048;73.268;2023-07-09T09:57:17;99930.31;;;25.04;40.61
59168;BME280;70412;55.048;73.268;2023-07-09T10:00:23;99930.38;;;24.71;40.51
59168;BME280;70412;55.048;73.268;2023-07-09T10:03:37;99939.03;;;24.53;41.00
59168;BME280;70412;55.048;73.268;2023-07-09T10:06:42;99950.38;;;24.55;40.64
59168;BME280;70412;55.048;73.268;2023-07-09T10:09:54;99942.53;;;24.87;39.17
59168;BME280;70412;55.048;73.268;2023-07-09T10:13:10;99927.88;;;24.89;39.22
59168;BME280;70412;55.048;73.268;2023-07-09T10:16:34;99935.53;;;25.44;38.77
59168;BME280;70412;55.048;73.268;2023-07-09T10:19:53;99916.91;;;23.98;41.68
59168;BME280;70412;55.048;73.268;2023-07-09T10:26:21;99921.38;;;25.17;39.68
59168;BME280;70412;55.048;73.268;2023-07-09T10:29:42;99908.88;;;26.43;39.36
59168;BME280;70412;55.048;73.268;2023-07-09T10:33:01;99923.38;;;24.37;39.91
59168;BME280;70412;55.048;73.268;2023-07-09T10:36:32;99915.09;;;24.45;41.22
59168;BME280;70412;55.048;73.268;2023-07-09T10:39:45;99909.94;;;24.30;38.83
59168;BME280;70412;55.048;73.268;2023-07-09T10:42:52;99917.34;;;24.48;39.77
59168;BME280;70412;55.048;73.268;2023-07-09T10:46:01;99925.34;;;23.95;40.88
59168;BME280;70412;55.048;73.268;2023-07-09T10:49:07;99914.03;;;23.32;42.71
59168;BME280;70412;55.048;73.268;2023-07-09T10:55:33;99909.03;;;25.60;38.75
59168;BME280;70412;55.048;73.268;2023-07-09T10:58:46;99879.31;;;25.55;38.87
59168;BME280;70412;55.048;73.268;2023-07-09T11:01:55;99902.66;;;25.55;38.84
59168;BME280;70412;55.048;73.268;2023-07-09T11:05:06;99890.69;;;24.86;40.85
59168;BME280;70412;55.048;73.268;2023-07-09T11:08:18;99904.78;;;24.35;40.93
59168;BME280;70412;55.048;73.268;2023-07-09T11:11:34;99889.50;;;24.69;41.59
59168;BME280;70412;55.048;73.268;2023-07-09T11:14:53;99886.91;;;26.46;39.13
59168;BME280;70412;55.048;73.268;2023-07-09T11:18:00;99899.75;;;26.19;38.10
59168;BME280;70412;55.048;73.268;2023-07-09T11:21:16;99897.38;;;25.73;38.76
59168;BME280;70412;55.048;73.268;2023-07-09T11:25:05;99880.63;;;23.82;42.17
59168;BME280;70412;55.048;73.268;2023-07-09T11:28:06;99890.75;;;23.87;42.21
59168;BME280;70412;55.048;73.268;2023-07-09T11:31:39;99894.22;;;26.14;40.12
59168;BME280;70412;55.048;73.268;2023-07-09T11:34:45;99884.97;;;26.04;37.32
59168;BME280;70412;55.048;73.268;2023-07-09T11:37:51;99863.06;;;26.75;37.58
59168;BME280;70412;55.048;73.268;2023-07-09T11:40:57;99880.63;;;26.52;37.54
59168;BME280;70412;55.048;73.268;2023-07-09T11:44:25;99880.94;;;26.63;36.52
59168;BME280;70412;55.048;73.268;2023-07-09T11:47:42;99872.31;;;27.15;37.86
59168;BME280;70412;55.048;73.268;2023-07-09T11:50:50;99873.16;;;26.79;37.10
59168;BME280;70412;55.048;73.268;2023-07-09T11:53:54;99861.22;;;24.79;39.28
59168;BME280;70412;55.048;73.268;2023-07-09T11:56:58;99879.22;;;24.46;40.88
59168;BME280;70412;55.048;73.268;2023-07-09T12:00:02;99861.28;;;24.53;40.70
59168;BME280;70412;55.048;73.268;2023-07-09T12:03:31;99866.84;;;24.71;41.33
59168;BME280;70412;55.048;73.268;2023-07-09T12:06:38;99874.63;;;24.66;41.72
59168;BME280;70412;55.048;73.268;2023-07-09T12:09:49;99863.97;;;24.33;41.72
59168;BME280;70412;55.048;73.268;2023-07-09T12:12:57;99873.84;;;24.59;41.80
59168;BME280;70412;55.048;73.268;2023-07-09T12:16:01;99873.03;;;24.32;40.75
59168;BME280;70412;55.048;73.268;2023-07-09T12:19:03;99878.19;;;24.47;41.02
59168;BME280;70412;55.048;73.268;2023-07-09T12:22:10;99865.56;;;24.81;40.69
59168;BME280;70412;55.048;73.268;2023-07-09T12:25:21;99878.31;;;24.85;40.69
59168;BME280;70412;55.048;73.268;2023-07-09T12:28:27;99876.69;;;24.84;40.57
59168;BME280;70412;55.048;73.268;2023-07-09T12:31:30;99884.47;;;24.99;40.21
59168;BME280;70412;55.048;73.268;2023-07-09T12:34:33;99877.38;;;26.87;37.79
59168;BME280;70412;55.048;73.268;2023-07-09T12:37:35;99880.81;;;26.33;37.89
59168;BME280;70412;55.048;73.268;2023-07-09T12:40:41;99879.16;;;24.86;40.95
59168;BME280;70412;55.048;73.268;2023-07-09T12:43:50;99868.09;;;24.42;41.81
59168;BME280;70412;55.048;73.268;2023-07-09T12:46:54;99874.69;;;24.13;41.99
59168;BME280;70412;55.048;73.268;2023-07-09T12:50:30;99853.25;;;24.13;42.23
59168;BME280;70412;55.048;73.268;2023-07-09T12:53:33;99868.91;;;24.30;43.21
59168;BME280;70412;55.048;73.268;2023-07-09T12:56:35;99870.72;;;25.40;40.50
59168;BME280;70412;55.048;73.268;2023-07-09T12:59:42;99823.09;;;25.85;39.43
59168;BME280;70412;55.048;73.268;2023-07-09T13:02:45;99850.47;;;26.87;36.82
59168;BME280;70412;55.048;73.268;2023-07-09T13:05:56;99871.78;;;24.61;42.50
59168;BME280;70412;55.048;73.268;2023-07-09T13:09:00;99874.50;;;24.22;42.63
59168;BME280;70412;55.048;73.268;2023-07-09T13:12:03;99869.44;;;23.46;44.66
59168;BME280;70412;55.048;73.268;2023-07-09T13:15:18;99869.22;;;23.47;45.58
59168;BME280;70412;55.048;73.268;2023-07-09T13:18:21;99856.91;;;23.53;45.10
59168;BME280;70412;55.048;73.268;2023-07-09T13:21:23;99874.72;;;24.07;45.12
59168;BME280;70412;55.048;73.268;2023-07-09T13:24:29;99874.25;;;23.90;44.34
59168;BME280;70412;55.048;73.268;2023-07-09T13:27:32;99872.44;;;24.37;44.62
59168;BME280;70412;55.048;73.268;2023-07-09T13:30:34;99877.19;;;24.08;45.03
59168;BME280;70412;55.048;73.268;2023-07-09T13:33:37;99871.22;;;24.06;46.03
59168;BME280;70412;55.048;73.268;2023-07-09T13:36:39;99863.97;;;23.87;45.72
59168;BME280;70412;55.048;73.268;2023-07-09T13:39:43;99867.25;;;24.55;44.54
59168;BME280;70412;55.048;73.268;2023-07-09T13:42:48;99861.88;;;23.76;46.08
59168;BME280;70412;55.048;73.268;2023-07-09T13:45:51;99867.25;;;23.96;45.46
59168;BME280;70412;55.048;73.268;2023-07-09T13:48:55;99868.88;;;23.83;46.28
59168;BME280;70412;55.048;73.268;2023-07-09T13:51:59;99866.41;;;23.95;45.31
59168;BME280;70412;55.048;73.268;2023-07-09T13:55:03;99839.97;;;23.39;45.95
59168;BME280;70412;55.048;73.268;2023-07-09T13:58:11;99844.03;;;23.22;46.86
59168;BME280;70412;55.048;73.268;2023-07-09T14:01:16;99850.34;;;23.08;47.65
59168;BME280;70412;55.048;73.268;2023-07-09T14:04:21;99861.59;;;22.96;48.06
59168;BME280;70412;55.048;73.268;2023-07-09T14:07:36;99843.00;;;22.82;49.11
59168;BME280;70412;55.048;73.268;2023-07-09T14:10:40;99855.28;;;23.11;48.78
59168;BME280;70412;55.048;73.268;2023-07-09T14:13:43;99853.00;;;23.08;49.59
59168;BME280;70412;55.048;73.268;2023-07-09T14:16:47;99848.66;;;23.61;47.25
59168;BME280;70412;55.048;73.268;2023-07-09T14:19:50;99840.41;;;23.36;50.24
59168;BME280;70412;55.048;73.268;2023-07-09T14:22:53;99829.31;;;22.98;48.34
59168;BME280;70412;55.048;73.268;2023-07-09T14:25:58;99837.72;;;22.88;49.69
59168;BME280;70412;55.048;73.268;2023-07-09T14:29:00;99843.28;;;22.93;48.64
59168;BME280;70412;55.048;73.268;2023-07-09T14:32:04;99848.00;;;22.91;49.42
59168;BME280;70412;55.048;73.268;2023-07-09T14:35:17;99846.75;;;22.87;50.31
59168;BME280;70412;55.048;73.268;2023-07-09T14:38:24;99850.78;;;22.70;53.36
59168;BME280;70412;55.048;73.268;2023-07-09T14:41:27;99844.97;;;22.60;52.32
59168;BME280;70412;55.048;73.268;2023-07-09T14:44:31;99828.69;;;22.27;52.52
59168;BME280;70412;55.048;73.268;2023-07-09T14:47:34;99847.09;;;22.15;55.76
59168;BME280;70412;55.048;73.268;2023-07-09T14:50:37;99846.78;;;22.31;52.06
59168;BME280;70412;55.048;73.268;2023-07-09T14:53:40;99834.31;;;22.10;53.09
59168;BME280;70412;55.048;73.268;2023-07-09T14:56:42;99844.56;;;22.07;55.24
59168;BME280;70412;55.048;73.268;2023-07-09T14:59:46;99850.63;;;21.94;54.96
59168;BME280;70412;55.048;73.268;2023-07-09T15:02:52;99838.97;;;21.80;58.56
59168;BME280;70412;55.048;73.268;2023-07-09T15:05:56;99847.09;;;21.72;55.41
59168;BME280;70412;55.048;73.268;2023-07-09T15:08:59;99848.69;;;21.67;56.31
59168;BME280;70412;55.048;73.268;2023-07-09T15:12:01;99850.28;;;21.61;54.66
59168;BME280;70412;55.048;73.268;2023-07-09T15:15:26;99851.78;;;21.49;57.04
59168;BME280;70412;55.048;73.268;2023-07-09T15:18:29;99840.91;;;21.29;56.89
59168;BME280;70412;55.048;73.268;2023-07-09T15:21:32;99851.75;;;21.28;57.99
59168;BME280;70412;55.048;73.268;2023-07-09T15:24:35;99856.31;;;21.12;60.38
59168;BME280;70412;55.048;73.268;2023-07-09T15:27:37;99856.31;;;21.12;59.13
59168;BME280;70412;55.048;73.268;2023-07-09T15:30:40;99861.91;;;21.17;58.01
59168;BME280;70412;55.048;73.268;2023-07-09T15:33:43;99859.97;;;21.11;57.09
59168;BME280;70412;55.048;73.268;2023-07-09T15:36:51;99852.78;;;20.97;59.29
59168;BME280;70412;55.048;73.268;2023-07-09T15:39:54;99857.03;;;20.77;61.21
59168;BME280;70412;55.048;73.268;2023-07-09T15:43:00;99860.28;;;20.72;60.71
59168;BME280;70412;55.048;73.268;2023-07-09T15:46:05;99859.25;;;20.58;61.20
59168;BME280;70412;55.048;73.268;2023-07-09T15:49:11;99857.41;;;20.59;62.66
59168;BME280;70412;55.048;73.268;2023-07-09T15:52:14;99855.78;;;20.73;58.02
59168;BME280;70412;55.048;73.268;2023-07-09T15:55:20;99866.13;;;20.82;58.02
59168;BME280;70412;55.048;73.268;2023-07-09T15:58:25;99860.16;;;20.66;59.93
59168;BME280;70412;55.048;73.268;2023-07-09T16:01:28;99862.56;;;20.60;60.78
59168;BME280;70412;55.048;73.268;2023-07-09T16:04:31;99856.31;;;20.53;60.26
59168;BME280;70412;55.048;73.268;2023-07-09T16:07:34;99855.72;;;20.28;63.60
59168;BME280;70412;55.048;73.268;2023-07-09T16:10:36;99862.06;;;20.27;62.55
59168;BME280;70412;55.048;73.268;2023-07-09T16:13:39;99857.84;;;20.33;61.62
59168;BME280;70412;55.048;73.268;2023-07-09T16:16:42;99857.63;;;20.20;61.78
59168;BME280;70412;55.048;73.268;2023-07-09T16:19:44;99867.25;;;20.21;62.64